sensor_id;sensor_type;location;lat;lon;timestamp;P1;durP1;ratioP1;P2;durP2;ratioP2
38591;SDS011;24356;48.460;11.450;2023-05-29T00:00:53;9.20;;;4.65;;
38591;SDS011;24356;48.460;11.450;2023-05-29T00:03:19;10.25;;;4.78;;
38591;SDS011;24356;48.460;11.450;2023-05-29T00:05:44;9.07;;;4.68;;
38591;SDS011;24356;48.460;11.450;2023-05-29T00:08:10;11.20;;;4.78;;
38591;SDS011;24356;48.460;11.450;2023-05-29T00:10:36;12.30;;;5.03;;
38591;SDS011;24356;48.460;11.450;2023-05-29T00:13:02;8.35;;;4.75;;
38591;SDS011;24356;48.460;11.450;2023-05-29T00:15:28;9.60;;;5.00;;
38591;SDS011;24356;48.460;11.450;2023-05-29T00:17:55;9.60;;;5.00;;
38591;SDS011;24356;48.460;11.450;2023-05-29T00:20:21;9.98;;;5.05;;
38591;SDS011;24356;48.460;11.450;2023-05-29T00:22:46;8.18;;;4.32;;
38591;SDS011;24356;48.460;11.450;2023-05-29T00:25:12;11.50;;;5.00;;
38591;SDS011;24356;48.460;11.450;2023-05-29T00:27:40;8.90;;;4.55;;
38591;SDS011;24356;48.460;11.450;2023-05-29T00:30:06;8.75;;;4.93;;
38591;SDS011;24356;48.460;11.450;2023-05-29T00:32:32;12.27;;;4.72;;
38591;SDS011;24356;48.460;11.450;2023-05-29T00:34:58;9.32;;;4.30;;
38591;SDS011;24356;48.460;11.450;2023-05-29T00:37:23;9.00;;;4.53;;
38591;SDS011;24356;48.460;11.450;2023-05-29T00:39:49;8.88;;;4.47;;
38591;SDS011;24356;48.460;11.450;2023-05-29T00:42:15;9.88;;;4.85;;
38591;SDS011;24356;48.460;11.450;2023-05-29T00:44:41;12.50;;;5.03;;
38591;SDS011;24356;48.460;11.450;2023-05-29T00:47:08;10.45;;;5.00;;
38591;SDS011;24356;48.460;11.450;2023-05-29T00:49:34;11.18;;;5.20;;
38591;SDS011;24356;48.460;11.450;2023-05-29T00:52:01;8.43;;;4.85;;
38591;SDS011;24356;48.460;11.450;2023-05-29T00:54:28;11.85;;;5.10;;
38591;SDS011;24356;48.460;11.450;2023-05-29T00:56:55;8.77;;;5.43;;
38591;SDS011;24356;48.460;11.450;2023-05-29T00:59:22;11.70;;;5.53;;
38591;SDS011;24356;48.460;11.450;2023-05-29T01:01:49;12.40;;;5.05;;
38591;SDS011;24356;48.460;11.450;2023-05-29T01:04:16;12.48;;;5.45;;
38591;SDS011;24356;48.460;11.450;2023-05-29T01:06:42;10.25;;;5.20;;
38591;SDS011;24356;48.460;11.450;2023-05-29T01:09:09;9.15;;;5.20;;
38591;SDS011;24356;48.460;11.450;2023-05-29T01:17:06;12.23;;;5.15;;
38591;SDS011;24356;48.460;11.450;2023-05-29T01:25:29;10.82;;;5.13;;
38591;SDS011;24356;48.460;11.450;2023-05-29T01:28:20;9.98;;;4.80;;
38591;SDS011;24356;48.460;11.450;2023-05-29T01:30:49;11.18;;;5.53;;
38591;SDS011;24356;48.460;11.450;2023-05-29T01:33:15;11.98;;;5.50;;
38591;SDS011;24356;48.460;11.450;2023-05-29T01:35:41;11.95;;;5.50;;
38591;SDS011;24356;48.460;11.450;2023-05-29T01:38:07;9.63;;;5.20;;
38591;SDS011;24356;48.460;11.450;2023-05-29T01:40:34;8.85;;;5.25;;
38591;SDS011;24356;48.460;11.450;2023-05-29T01:43:00;10.15;;;5.43;;
38591;SDS011;24356;48.460;11.450;2023-05-29T01:45:26;10.45;;;4.95;;
38591;SDS011;24356;48.460;11.450;2023-05-29T01:47:53;12.82;;;6.43;;
38591;SDS011;24356;48.460;11.450;2023-05-29T01:50:19;8.93;;;4.88;;
38591;SDS011;24356;48.460;11.450;2023-05-29T01:52:47;9.77;;;4.90;;
38591;SDS011;24356;48.460;11.450;2023-05-29T01:55:13;12.95;;;5.18;;
38591;SDS011;24356;48.460;11.450;2023-05-29T01:57:39;9.20;;;5.38;;
38591;SDS011;24356;48.460;11.450;2023-05-29T02:00:06;9.43;;;4.95;;
38591;SDS011;24356;48.460;11.450;2023-05-29T02:02:37;9.77;;;4.93;;
38591;SDS011;24356;48.460;11.450;2023-05-29T02:05:04;11.02;;;4.93;;
38591;SDS011;24356;48.460;11.450;2023-05-29T02:07:34;9.27;;;5.55;;
38591;SDS011;24356;48.460;11.450;2023-05-29T02:10:02;14.07;;;5.10;;
38591;SDS011;24356;48.460;11.450;2023-05-29T02:12:28;9.73;;;4.88;;
38591;SDS011;24356;48.460;11.450;2023-05-29T02:14:54;13.95;;;5.50;;
38591;SDS011;24356;48.460;11.450;2023-05-29T02:17:21;10.93;;;5.40;;
38591;SDS011;24356;48.460;11.450;2023-05-29T02:19:47;9.77;;;5.20;;
38591;SDS011;24356;48.460;11.450;2023-05-29T02:22:15;13.15;;;5.40;;
38591;SDS011;24356;48.460;11.450;2023-05-29T02:24:42;11.27;;;5.45;;
38591;SDS011;24356;48.460;11.450;2023-05-29T02:27:08;10.20;;;5.10;;
38591;SDS011;24356;48.460;11.450;2023-05-29T02:29:34;9.52;;;5.13;;
38591;SDS011;24356;48.460;11.450;2023-05-29T02:32:00;11.18;;;5.15;;
38591;SDS011;24356;48.460;11.450;2023-05-29T02:34:25;11.95;;;5.53;;
38591;SDS011;24356;48.460;11.450;2023-05-29T02:36:51;11.63;;;5.45;;
38591;SDS011;24356;48.460;11.450;2023-05-29T02:39:17;8.45;;;4.72;;
38591;SDS011;24356;48.460;11.450;2023-05-29T02:41:43;10.20;;;4.95;;
38591;SDS011;24356;48.460;11.450;2023-05-29T02:44:09;12.20;;;5.20;;
38591;SDS011;24356;48.460;11.450;2023-05-29T02:46:35;8.55;;;4.80;;
38591;SDS011;24356;48.460;11.450;2023-05-29T02:49:00;10.10;;;5.25;;
38591;SDS011;24356;48.460;11.450;2023-05-29T02:51:26;12.63;;;5.30;;
38591;SDS011;24356;48.460;11.450;2023-05-29T02:53:52;10.25;;;5.25;;
38591;SDS011;24356;48.460;11.450;2023-05-29T02:56:18;11.63;;;4.90;;
38591;SDS011;24356;48.460;11.450;2023-05-29T02:58:49;9.68;;;5.40;;
38591;SDS011;24356;48.460;11.450;2023-05-29T03:01:15;8.35;;;4.93;;
38591;SDS011;24356;48.460;11.450;2023-05-29T03:03:41;8.23;;;5.50;;
38591;SDS011;24356;48.460;11.450;2023-05-29T03:06:07;13.40;;;5.78;;
38591;SDS011;24356;48.460;11.450;2023-05-29T03:08:33;11.38;;;5.50;;
38591;SDS011;24356;48.460;11.450;2023-05-29T03:10:59;10.60;;;5.25;;
38591;SDS011;24356;48.460;11.450;2023-05-29T03:13:25;10.07;;;5.05;;
38591;SDS011;24356;48.460;11.450;2023-05-29T03:15:51;10.77;;;5.40;;
38591;SDS011;24356;48.460;11.450;2023-05-29T03:18:21;9.95;;;5.45;;
38591;SDS011;24356;48.460;11.450;2023-05-29T03:20:47;16.92;;;5.32;;
38591;SDS011;24356;48.460;11.450;2023-05-29T03:23:12;11.40;;;5.20;;
38591;SDS011;24356;48.460;11.450;2023-05-29T03:25:38;10.20;;;5.28;;
38591;SDS011;24356;48.460;11.450;2023-05-29T03:28:04;8.23;;;5.10;;
38591;SDS011;24356;48.460;11.450;2023-05-29T03:30:29;12.15;;;5.57;;
38591;SDS011;24356;48.460;11.450;2023-05-29T03:32:55;12.27;;;5.68;;
38591;SDS011;24356;48.460;11.450;2023-05-29T03:35:20;8.95;;;5.55;;
38591;SDS011;24356;48.460;11.450;2023-05-29T03:37:46;11.65;;;5.32;;
38591;SDS011;24356;48.460;11.450;2023-05-29T03:40:11;11.77;;;5.38;;
38591;SDS011;24356;48.460;11.450;2023-05-29T03:42:37;9.60;;;4.82;;
38591;SDS011;24356;48.460;11.450;2023-05-29T03:45:03;11.20;;;5.30;;
38591;SDS011;24356;48.460;11.450;2023-05-29T03:47:29;11.00;;;4.88;;
38591;SDS011;24356;48.460;11.450;2023-05-29T03:49:56;8.82;;;4.90;;
38591;SDS011;24356;48.460;11.450;2023-05-29T03:52:21;10.68;;;5.53;;
38591;SDS011;24356;48.460;11.450;2023-05-29T03:54:47;10.88;;;5.32;;
38591;SDS011;24356;48.460;11.450;2023-05-29T03:57:12;9.40;;;5.40;;
38591;SDS011;24356;48.460;11.450;2023-05-29T03:59:38;8.82;;;4.75;;
38591;SDS011;24356;48.460;11.450;2023-05-29T04:02:04;8.77;;;5.30;;
38591;SDS011;24356;48.460;11.450;2023-05-29T04:04:29;9.23;;;5.13;;
38591;SDS011;24356;48.460;11.450;2023-05-29T04:06:55;11.30;;;4.70;;
38591;SDS011;24356;48.460;11.450;2023-05-29T04:09:21;11.43;;;5.50;;
38591;SDS011;24356;48.460;11.450;2023-05-29T04:11:47;10.10;;;5.20;;
38591;SDS011;24356;48.460;11.450;2023-05-29T04:14:12;9.90;;;5.00;;
38591;SDS011;24356;48.460;11.450;2023-05-29T04:16:38;9.10;;;5.20;;
38591;SDS011;24356;48.460;11.450;2023-05-29T04:19:05;9.70;;;5.22;;
38591;SDS011;24356;48.460;11.450;2023-05-29T04:21:31;9.52;;;5.13;;
38591;SDS011;24356;48.460;11.450;2023-05-29T04:23:57;9.52;;;5.32;;
38591;SDS011;24356;48.460;11.450;2023-05-29T04:26:23;11.10;;;5.20;;
38591;SDS011;24356;48.460;11.450;2023-05-29T04:28:56;10.25;;;5.13;;
38591;SDS011;24356;48.460;11.450;2023-05-29T04:31:26;8.90;;;5.03;;
38591;SDS011;24356;48.460;11.450;2023-05-29T04:33:54;12.48;;;6.03;;
38591;SDS011;24356;48.460;11.450;2023-05-29T04:36:23;11.27;;;5.97;;
38591;SDS011;24356;48.460;11.450;2023-05-29T04:38:51;9.70;;;5.38;;
38591;SDS011;24356;48.460;11.450;2023-05-29T04:41:19;10.75;;;5.80;;
38591;SDS011;24356;48.460;11.450;2023-05-29T04:43:48;9.80;;;4.85;;
38591;SDS011;24356;48.460;11.450;2023-05-29T04:46:15;12.30;;;5.95;;
38591;SDS011;24356;48.460;11.450;2023-05-29T04:48:41;10.20;;;5.80;;
38591;SDS011;24356;48.460;11.450;2023-05-29T04:51:08;12.23;;;6.20;;
38591;SDS011;24356;48.460;11.450;2023-05-29T04:53:38;10.10;;;5.55;;
38591;SDS011;24356;48.460;11.450;2023-05-29T04:56:08;13.00;;;6.07;;
38591;SDS011;24356;48.460;11.450;2023-05-29T04:58:35;9.63;;;5.43;;
38591;SDS011;24356;48.460;11.450;2023-05-29T05:01:00;13.15;;;6.20;;
38591;SDS011;24356;48.460;11.450;2023-05-29T05:03:28;12.52;;;5.95;;
38591;SDS011;24356;48.460;11.450;2023-05-29T05:05:55;11.18;;;6.50;;
38591;SDS011;24356;48.460;11.450;2023-05-29T05:08:22;15.68;;;6.68;;
38591;SDS011;24356;48.460;11.450;2023-05-29T05:10:48;12.77;;;6.85;;
38591;SDS011;24356;48.460;11.450;2023-05-29T05:13:17;15.00;;;7.28;;
38591;SDS011;24356;48.460;11.450;2023-05-29T05:15:43;19.42;;;7.50;;
38591;SDS011;24356;48.460;11.450;2023-05-29T05:18:27;16.35;;;7.50;;
38591;SDS011;24356;48.460;11.450;2023-05-29T05:20:55;14.25;;;7.05;;
38591;SDS011;24356;48.460;11.450;2023-05-29T05:23:22;14.07;;;6.93;;
38591;SDS011;24356;48.460;11.450;2023-05-29T05:25:48;13.93;;;6.47;;
38591;SDS011;24356;48.460;11.450;2023-05-29T05:28:13;11.48;;;6.28;;
38591;SDS011;24356;48.460;11.450;2023-05-29T05:30:40;14.30;;;6.43;;
38591;SDS011;24356;48.460;11.450;2023-05-29T05:33:06;14.90;;;6.20;;
38591;SDS011;24356;48.460;11.450;2023-05-29T05:35:33;13.63;;;5.65;;
38591;SDS011;24356;48.460;11.450;2023-05-29T05:37:58;14.40;;;5.50;;
38591;SDS011;24356;48.460;11.450;2023-05-29T05:40:25;14.52;;;5.95;;
38591;SDS011;24356;48.460;11.450;2023-05-29T05:42:52;14.13;;;5.70;;
38591;SDS011;24356;48.460;11.450;2023-05-29T05:45:18;10.43;;;4.85;;
38591;SDS011;24356;48.460;11.450;2023-05-29T05:47:43;13.60;;;5.45;;
38591;SDS011;24356;48.460;11.450;2023-05-29T05:50:09;11.30;;;5.53;;
38591;SDS011;24356;48.460;11.450;2023-05-29T05:52:35;11.18;;;5.65;;
38591;SDS011;24356;48.460;11.450;2023-05-29T05:55:00;14.30;;;5.85;;
38591;SDS011;24356;48.460;11.450;2023-05-29T05:57:26;11.70;;;5.30;;
38591;SDS011;24356;48.460;11.450;2023-05-29T05:59:52;9.80;;;5.22;;
38591;SDS011;24356;48.460;11.450;2023-05-29T06:02:18;10.82;;;5.47;;
38591;SDS011;24356;48.460;11.450;2023-05-29T06:04:43;13.60;;;5.70;;
38591;SDS011;24356;48.460;11.450;2023-05-29T06:07:09;12.65;;;5.53;;
38591;SDS011;24356;48.460;11.450;2023-05-29T06:09:36;11.68;;;5.45;;
38591;SDS011;24356;48.460;11.450;2023-05-29T06:12:02;9.90;;;4.82;;
38591;SDS011;24356;48.460;11.450;2023-05-29T06:14:28;10.50;;;4.97;;
38591;SDS011;24356;48.460;11.450;2023-05-29T06:16:53;12.50;;;5.53;;
38591;SDS011;24356;48.460;11.450;2023-05-29T06:19:19;11.57;;;5.40;;
38591;SDS011;24356;48.460;11.450;2023-05-29T06:21:45;9.90;;;4.80;;
38591;SDS011;24356;48.460;11.450;2023-05-29T06:24:11;10.57;;;5.50;;
38591;SDS011;24356;48.460;11.450;2023-05-29T06:26:39;10.93;;;4.85;;
38591;SDS011;24356;48.460;11.450;2023-05-29T06:29:04;10.60;;;4.97;;
38591;SDS011;24356;48.460;11.450;2023-05-29T06:31:31;13.45;;;5.28;;
38591;SDS011;24356;48.460;11.450;2023-05-29T06:33:58;10.63;;;4.85;;
38591;SDS011;24356;48.460;11.450;2023-05-29T06:36:23;11.48;;;5.10;;
38591;SDS011;24356;48.460;11.450;2023-05-29T06:38:50;15.85;;;5.10;;
38591;SDS011;24356;48.460;11.450;2023-05-29T06:41:16;12.15;;;5.25;;
38591;SDS011;24356;48.460;11.450;2023-05-29T06:43:41;9.90;;;5.18;;
38591;SDS011;24356;48.460;11.450;2023-05-29T06:46:07;10.57;;;4.80;;
38591;SDS011;24356;48.460;11.450;2023-05-29T06:48:34;12.20;;;4.85;;
38591;SDS011;24356;48.460;11.450;2023-05-29T06:51:00;12.10;;;5.18;;
38591;SDS011;24356;48.460;11.450;2023-05-29T06:53:26;12.45;;;4.95;;
38591;SDS011;24356;48.460;11.450;2023-05-29T06:55:52;9.50;;;4.75;;
38591;SDS011;24356;48.460;11.450;2023-05-29T06:58:18;10.20;;;5.43;;
38591;SDS011;24356;48.460;11.450;2023-05-29T07:00:44;9.70;;;4.80;;
38591;SDS011;24356;48.460;11.450;2023-05-29T07:03:09;9.27;;;4.40;;
38591;SDS011;24356;48.460;11.450;2023-05-29T07:05:35;8.00;;;4.68;;
38591;SDS011;24356;48.460;11.450;2023-05-29T07:08:01;7.85;;;4.28;;
38591;SDS011;24356;48.460;11.450;2023-05-29T07:10:26;13.57;;;4.82;;
38591;SDS011;24356;48.460;11.450;2023-05-29T07:12:52;11.25;;;4.57;;
38591;SDS011;24356;48.460;11.450;2023-05-29T07:15:17;8.05;;;4.20;;
38591;SDS011;24356;48.460;11.450;2023-05-29T07:17:43;11.98;;;4.47;;
38591;SDS011;24356;48.460;11.450;2023-05-29T07:20:09;11.20;;;4.68;;
38591;SDS011;24356;48.460;11.450;2023-05-29T07:22:35;10.60;;;4.85;;
38591;SDS011;24356;48.460;11.450;2023-05-29T07:25:01;10.82;;;4.50;;
38591;SDS011;24356;48.460;11.450;2023-05-29T07:27:28;10.43;;;4.50;;
38591;SDS011;24356;48.460;11.450;2023-05-29T07:29:54;9.80;;;5.05;;
38591;SDS011;24356;48.460;11.450;2023-05-29T07:32:20;9.82;;;4.57;;
38591;SDS011;24356;48.460;11.450;2023-05-29T07:34:46;10.18;;;4.47;;
38591;SDS011;24356;48.460;11.450;2023-05-29T07:37:14;9.65;;;4.43;;
38591;SDS011;24356;48.460;11.450;2023-05-29T07:39:40;8.05;;;4.22;;
38591;SDS011;24356;48.460;11.450;2023-05-29T07:42:07;7.22;;;4.07;;
38591;SDS011;24356;48.460;11.450;2023-05-29T07:44:32;9.15;;;4.35;;
38591;SDS011;24356;48.460;11.450;2023-05-29T07:46:58;10.20;;;4.80;;
38591;SDS011;24356;48.460;11.450;2023-05-29T07:49:24;8.95;;;4.55;;
38591;SDS011;24356;48.460;11.450;2023-05-29T07:51:49;8.05;;;4.00;;
38591;SDS011;24356;48.460;11.450;2023-05-29T07:54:15;11.68;;;4.35;;
38591;SDS011;24356;48.460;11.450;2023-05-29T07:56:43;9.63;;;4.43;;
38591;SDS011;24356;48.460;11.450;2023-05-29T07:59:09;9.82;;;4.07;;
38591;SDS011;24356;48.460;11.450;2023-05-29T08:01:35;6.82;;;4.10;;
38591;SDS011;24356;48.460;11.450;2023-05-29T08:04:04;8.30;;;4.13;;
38591;SDS011;24356;48.460;11.450;2023-05-29T08:06:30;13.25;;;4.40;;
38591;SDS011;24356;48.460;11.450;2023-05-29T08:08:57;9.95;;;4.15;;
38591;SDS011;24356;48.460;11.450;2023-05-29T08:11:23;8.40;;;4.35;;
38591;SDS011;24356;48.460;11.450;2023-05-29T08:13:49;8.52;;;4.20;;
38591;SDS011;24356;48.460;11.450;2023-05-29T08:16:14;8.57;;;4.07;;
38591;SDS011;24356;48.460;11.450;2023-05-29T08:18:41;9.63;;;4.03;;
38591;SDS011;24356;48.460;11.450;2023-05-29T08:21:07;7.30;;;4.18;;
38591;SDS011;24356;48.460;11.450;2023-05-29T08:23:34;9.23;;;4.10;;
38591;SDS011;24356;48.460;11.450;2023-05-29T08:26:00;12.95;;;4.40;;
38591;SDS011;24356;48.460;11.450;2023-05-29T08:28:27;7.43;;;4.10;;
38591;SDS011;24356;48.460;11.450;2023-05-29T08:30:53;8.15;;;4.30;;
38591;SDS011;24356;48.460;11.450;2023-05-29T08:33:18;8.13;;;3.90;;
38591;SDS011;24356;48.460;11.450;2023-05-29T08:35:45;8.45;;;3.72;;
38591;SDS011;24356;48.460;11.450;2023-05-29T08:38:11;8.43;;;3.95;;
38591;SDS011;24356;48.460;11.450;2023-05-29T08:40:37;8.05;;;4.03;;
38591;SDS011;24356;48.460;11.450;2023-05-29T08:43:05;11.07;;;4.47;;
38591;SDS011;24356;48.460;11.450;2023-05-29T08:45:38;9.50;;;4.03;;
38591;SDS011;24356;48.460;11.450;2023-05-29T08:48:07;6.88;;;3.85;;
38591;SDS011;24356;48.460;11.450;2023-05-29T08:50:36;8.43;;;4.05;;
38591;SDS011;24356;48.460;11.450;2023-05-29T08:53:08;5.95;;;3.80;;
38591;SDS011;24356;48.460;11.450;2023-05-29T08:55:34;9.60;;;4.35;;
38591;SDS011;24356;48.460;11.450;2023-05-29T08:58:00;8.10;;;3.90;;
38591;SDS011;24356;48.460;11.450;2023-05-29T09:00:26;6.10;;;4.10;;
38591;SDS011;24356;48.460;11.450;2023-05-29T09:02:54;8.02;;;4.13;;
38591;SDS011;24356;48.460;11.450;2023-05-29T09:05:20;5.22;;;3.47;;
38591;SDS011;24356;48.460;11.450;2023-05-29T09:07:46;8.05;;;3.90;;
38591;SDS011;24356;48.460;11.450;2023-05-29T09:10:14;7.00;;;3.75;;
38591;SDS011;24356;48.460;11.450;2023-05-29T09:12:40;10.05;;;3.78;;
38591;SDS011;24356;48.460;11.450;2023-05-29T09:15:16;7.68;;;4.32;;
38591;SDS011;24356;48.460;11.450;2023-05-29T09:17:44;7.88;;;3.83;;
38591;SDS011;24356;48.460;11.450;2023-05-29T09:20:15;6.40;;;4.05;;
38591;SDS011;24356;48.460;11.450;2023-05-29T09:22:46;12.32;;;3.88;;
38591;SDS011;24356;48.460;11.450;2023-05-29T09:25:22;7.10;;;3.97;;
38591;SDS011;24356;48.460;11.450;2023-05-29T09:27:55;8.32;;;3.90;;
38591;SDS011;24356;48.460;11.450;2023-05-29T09:30:37;7.60;;;4.13;;
38591;SDS011;24356;48.460;11.450;2023-05-29T09:33:05;9.25;;;4.10;;
38591;SDS011;24356;48.460;11.450;2023-05-29T09:35:35;6.20;;;3.97;;
38591;SDS011;24356;48.460;11.450;2023-05-29T09:38:02;8.27;;;3.88;;
38591;SDS011;24356;48.460;11.450;2023-05-29T09:40:46;6.30;;;3.70;;
38591;SDS011;24356;48.460;11.450;2023-05-29T09:43:12;9.45;;;4.10;;
38591;SDS011;24356;48.460;11.450;2023-05-29T09:45:48;11.10;;;4.30;;
38591;SDS011;24356;48.460;11.450;2023-05-29T09:48:16;9.15;;;4.18;;
38591;SDS011;24356;48.460;11.450;2023-05-29T09:50:48;7.78;;;3.45;;
38591;SDS011;24356;48.460;11.450;2023-05-29T09:55:47;7.22;;;4.03;;
38591;SDS011;24356;48.460;11.450;2023-05-29T09:58:13;7.80;;;3.97;;
38591;SDS011;24356;48.460;11.450;2023-05-29T10:00:41;9.18;;;4.57;;
38591;SDS011;24356;48.460;11.450;2023-05-29T10:03:08;9.07;;;4.20;;
38591;SDS011;24356;48.460;11.450;2023-05-29T10:05:34;6.95;;;4.10;;
38591;SDS011;24356;48.460;11.450;2023-05-29T10:08:00;21.10;;;4.82;;
38591;SDS011;24356;48.460;11.450;2023-05-29T10:10:28;7.70;;;3.83;;
38591;SDS011;24356;48.460;11.450;2023-05-29T10:12:54;10.82;;;4.13;;
38591;SDS011;24356;48.460;11.450;2023-05-29T10:15:22;8.40;;;3.88;;
38591;SDS011;24356;48.460;11.450;2023-05-29T10:17:50;8.65;;;3.63;;
38591;SDS011;24356;48.460;11.450;2023-05-29T10:20:21;7.50;;;4.30;;
38591;SDS011;24356;48.460;11.450;2023-05-29T10:22:49;7.40;;;3.92;;
38591;SDS011;24356;48.460;11.450;2023-05-29T10:25:20;6.43;;;4.00;;
38591;SDS011;24356;48.460;11.450;2023-05-29T10:27:49;8.27;;;4.10;;
38591;SDS011;24356;48.460;11.450;2023-05-29T10:30:25;5.88;;;3.65;;
38591;SDS011;24356;48.460;11.450;2023-05-29T10:38:47;12.00;;;3.78;;
38591;SDS011;24356;48.460;11.450;2023-05-29T10:43:53;9.05;;;3.85;;
38591;SDS011;24356;48.460;11.450;2023-05-29T10:46:18;8.52;;;3.90;;
38591;SDS011;24356;48.460;11.450;2023-05-29T10:48:44;6.65;;;4.03;;
38591;SDS011;24356;48.460;11.450;2023-05-29T10:51:32;5.63;;;3.70;;
38591;SDS011;24356;48.460;11.450;2023-05-29T10:53:57;12.65;;;4.25;;
38591;SDS011;24356;48.460;11.450;2023-05-29T10:56:27;7.78;;;4.15;;
38591;SDS011;24356;48.460;11.450;2023-05-29T10:58:54;8.68;;;4.55;;
38591;SDS011;24356;48.460;11.450;2023-05-29T11:01:22;8.93;;;3.92;;
38591;SDS011;24356;48.460;11.450;2023-05-29T11:03:50;6.85;;;3.92;;
38591;SDS011;24356;48.460;11.450;2023-05-29T11:06:18;6.43;;;3.88;;
38591;SDS011;24356;48.460;11.450;2023-05-29T11:08:54;8.75;;;4.00;;
38591;SDS011;24356;48.460;11.450;2023-05-29T11:13:53;12.18;;;4.03;;
38591;SDS011;24356;48.460;11.450;2023-05-29T11:18:56;7.85;;;3.70;;
38591;SDS011;24356;48.460;11.450;2023-05-29T11:24:21;5.93;;;3.60;;
38591;SDS011;24356;48.460;11.450;2023-05-29T11:26:49;11.40;;;3.85;;
38591;SDS011;24356;48.460;11.450;2023-05-29T11:29:28;7.85;;;3.70;;
38591;SDS011;24356;48.460;11.450;2023-05-29T11:32:04;6.22;;;3.58;;
38591;SDS011;24356;48.460;11.450;2023-05-29T11:34:33;5.32;;;3.45;;
38591;SDS011;24356;48.460;11.450;2023-05-29T11:36:59;9.13;;;3.42;;
38591;SDS011;24356;48.460;11.450;2023-05-29T11:39:27;7.35;;;3.25;;
38591;SDS011;24356;48.460;11.450;2023-05-29T11:41:54;9.40;;;3.50;;
38591;SDS011;24356;48.460;11.450;2023-05-29T11:44:20;6.82;;;3.20;;
38591;SDS011;24356;48.460;11.450;2023-05-29T11:46:58;6.60;;;3.60;;
38591;SDS011;24356;48.460;11.450;2023-05-29T11:49:28;7.68;;;3.40;;
38591;SDS011;24356;48.460;11.450;2023-05-29T11:52:04;7.97;;;3.85;;
38591;SDS011;24356;48.460;11.450;2023-05-29T11:54:32;7.07;;;3.55;;
38591;SDS011;24356;48.460;11.450;2023-05-29T11:56:59;5.25;;;3.22;;
38591;SDS011;24356;48.460;11.450;2023-05-29T11:59:28;5.57;;;3.50;;
38591;SDS011;24356;48.460;11.450;2023-05-29T12:01:56;6.80;;;3.22;;
38591;SDS011;24356;48.460;11.450;2023-05-29T12:04:21;7.85;;;3.70;;
38591;SDS011;24356;48.460;11.450;2023-05-29T12:06:47;7.88;;;3.60;;
38591;SDS011;24356;48.460;11.450;2023-05-29T12:09:28;7.40;;;3.70;;
38591;SDS011;24356;48.460;11.450;2023-05-29T12:12:01;6.00;;;3.28;;
38591;SDS011;24356;48.460;11.450;2023-05-29T12:14:27;8.60;;;3.67;;
38591;SDS011;24356;48.460;11.450;2023-05-29T12:16:53;3.88;;;3.13;;
38591;SDS011;24356;48.460;11.450;2023-05-29T12:19:19;8.63;;;3.42;;
38591;SDS011;24356;48.460;11.450;2023-05-29T12:21:44;7.28;;;3.50;;
38591;SDS011;24356;48.460;11.450;2023-05-29T12:24:10;7.25;;;3.20;;
38591;SDS011;24356;48.460;11.450;2023-05-29T12:26:36;5.72;;;3.50;;
38591;SDS011;24356;48.460;11.450;2023-05-29T12:29:02;5.13;;;3.17;;
38591;SDS011;24356;48.460;11.450;2023-05-29T12:33:59;8.52;;;3.13;;
38591;SDS011;24356;48.460;11.450;2023-05-29T12:36:32;6.22;;;3.10;;
38591;SDS011;24356;48.460;11.450;2023-05-29T12:38:58;7.53;;;3.47;;
38591;SDS011;24356;48.460;11.450;2023-05-29T12:43:56;6.57;;;3.53;;
38591;SDS011;24356;48.460;11.450;2023-05-29T12:46:25;6.90;;;3.33;;
38591;SDS011;24356;48.460;11.450;2023-05-29T12:48:52;5.82;;;3.35;;
38591;SDS011;24356;48.460;11.450;2023-05-29T12:51:23;6.78;;;3.03;;
38591;SDS011;24356;48.460;11.450;2023-05-29T12:53:52;5.88;;;3.15;;
38591;SDS011;24356;48.460;11.450;2023-05-29T12:56:22;6.28;;;3.33;;
38591;SDS011;24356;48.460;11.450;2023-05-29T12:58:49;5.00;;;3.20;;
38591;SDS011;24356;48.460;11.450;2023-05-29T13:01:16;7.38;;;3.45;;
38591;SDS011;24356;48.460;11.450;2023-05-29T13:03:42;9.15;;;3.33;;
38591;SDS011;24356;48.460;11.450;2023-05-29T13:06:10;4.63;;;2.97;;
38591;SDS011;24356;48.460;11.450;2023-05-29T13:08:36;7.28;;;2.97;;
38591;SDS011;24356;48.460;11.450;2023-05-29T13:11:02;6.00;;;2.83;;
38591;SDS011;24356;48.460;11.450;2023-05-29T13:13:27;6.40;;;3.40;;
38591;SDS011;24356;48.460;11.450;2023-05-29T13:15:53;5.97;;;3.30;;
38591;SDS011;24356;48.460;11.450;2023-05-29T13:18:18;7.35;;;3.38;;
38591;SDS011;24356;48.460;11.450;2023-05-29T13:20:44;4.82;;;2.78;;
38591;SDS011;24356;48.460;11.450;2023-05-29T13:23:10;8.70;;;2.83;;
38591;SDS011;24356;48.460;11.450;2023-05-29T13:25:35;8.43;;;3.30;;
38591;SDS011;24356;48.460;11.450;2023-05-29T13:28:01;6.97;;;3.10;;
38591;SDS011;24356;48.460;11.450;2023-05-29T13:30:27;5.70;;;3.10;;
38591;SDS011;24356;48.460;11.450;2023-05-29T13:32:52;8.68;;;3.28;;
38591;SDS011;24356;48.460;11.450;2023-05-29T13:35:19;5.47;;;3.00;;
38591;SDS011;24356;48.460;11.450;2023-05-29T13:37:45;9.02;;;3.15;;
38591;SDS011;24356;48.460;11.450;2023-05-29T13:40:11;4.40;;;2.80;;
38591;SDS011;24356;48.460;11.450;2023-05-29T13:42:38;6.05;;;3.15;;
38591;SDS011;24356;48.460;11.450;2023-05-29T13:45:04;7.72;;;3.10;;
38591;SDS011;24356;48.460;11.450;2023-05-29T13:47:31;6.60;;;3.08;;
38591;SDS011;24356;48.460;11.450;2023-05-29T13:49:57;7.55;;;2.97;;
38591;SDS011;24356;48.460;11.450;2023-05-29T13:52:24;7.10;;;2.90;;
38591;SDS011;24356;48.460;11.450;2023-05-29T13:54:52;8.95;;;2.90;;
38591;SDS011;24356;48.460;11.450;2023-05-29T13:57:18;3.95;;;2.80;;
38591;SDS011;24356;48.460;11.450;2023-05-29T13:59:44;4.82;;;2.83;;
38591;SDS011;24356;48.460;11.450;2023-05-29T14:02:10;3.92;;;2.60;;
38591;SDS011;24356;48.460;11.450;2023-05-29T14:04:36;7.55;;;3.00;;
38591;SDS011;24356;48.460;11.450;2023-05-29T14:07:03;5.47;;;2.50;;
38591;SDS011;24356;48.460;11.450;2023-05-29T14:09:29;6.93;;;2.60;;
38591;SDS011;24356;48.460;11.450;2023-05-29T14:11:58;4.40;;;3.00;;
38591;SDS011;24356;48.460;11.450;2023-05-29T14:14:25;4.00;;;2.75;;
38591;SDS011;24356;48.460;11.450;2023-05-29T14:16:51;9.45;;;2.70;;
38591;SDS011;24356;48.460;11.450;2023-05-29T14:19:23;6.40;;;2.80;;
38591;SDS011;24356;48.460;11.450;2023-05-29T14:21:49;3.80;;;2.75;;
38591;SDS011;24356;48.460;11.450;2023-05-29T14:24:15;4.68;;;3.10;;
38591;SDS011;24356;48.460;11.450;2023-05-29T14:26:42;6.80;;;2.90;;
38591;SDS011;24356;48.460;11.450;2023-05-29T14:29:11;4.97;;;2.80;;
38591;SDS011;24356;48.460;11.450;2023-05-29T14:31:39;5.57;;;2.90;;
38591;SDS011;24356;48.460;11.450;2023-05-29T14:34:06;7.80;;;2.97;;
38591;SDS011;24356;48.460;11.450;2023-05-29T14:36:33;5.30;;;3.03;;
38591;SDS011;24356;48.460;11.450;2023-05-29T14:39:01;3.83;;;2.80;;
38591;SDS011;24356;48.460;11.450;2023-05-29T14:41:27;4.25;;;2.92;;
38591;SDS011;24356;48.460;11.450;2023-05-29T14:43:52;6.72;;;2.90;;
38591;SDS011;24356;48.460;11.450;2023-05-29T14:46:18;5.30;;;2.80;;
38591;SDS011;24356;48.460;11.450;2023-05-29T14:48:44;3.47;;;2.60;;
38591;SDS011;24356;48.460;11.450;2023-05-29T14:51:14;5.18;;;2.75;;
38591;SDS011;24356;48.460;11.450;2023-05-29T14:53:40;4.57;;;3.03;;
38591;SDS011;24356;48.460;11.450;2023-05-29T14:56:06;4.15;;;2.78;;
38591;SDS011;24356;48.460;11.450;2023-05-29T14:58:31;3.65;;;2.88;;
38591;SDS011;24356;48.460;11.450;2023-05-29T15:00:57;4.35;;;2.90;;
38591;SDS011;24356;48.460;11.450;2023-05-29T15:03:22;4.45;;;2.63;;